sensor_id;sensor_type;location;lat;lon;timestamp;temperature;humidity
3300;DHT22;1662;49.310;8.134;2023-12-20T00:01:02;6.30;99.90
3300;DHT22;1662;49.310;8.134;2023-12-20T00:03:27;6.20;99.90
3300;DHT22;1662;49.310;8.134;2023-12-20T00:05:53;6.30;99.90
3300;DHT22;1662;49.310;8.134;2023-12-20T00:08:18;6.30;99.90
3300;DHT22;1662;49.310;8.134;2023-12-20T00:10:44;6.30;99.90
3300;DHT22;1662;49.310;8.134;2023-12-20T00:13:10;6.20;99.90
3300;DHT22;1662;49.310;8.134;2023-12-20T00:15:38;6.30;99.90
3300;DHT22;1662;49.310;8.134;2023-12-20T00:18:04;6.20;99.90
3300;DHT22;1662;49.310;8.134;2023-12-20T00:20:30;6.20;99.90
3300;DHT22;1662;49.310;8.134;2023-12-20T00:22:57;6.20;99.90
3300;DHT22;1662;49.310;8.134;2023-12-20T00:25:25;6.20;99.90
3300;DHT22;1662;49.310;8.134;2023-12-20T00:27:51;6.20;99.90
3300;DHT22;1662;49.310;8.134;2023-12-20T00:30:17;6.30;99.90
3300;DHT22;1662;49.310;8.134;2023-12-20T00:32:45;6.20;99.90
3300;DHT22;1662;49.310;8.134;2023-12-20T00:35:16;6.20;99.90
3300;DHT22;1662;49.310;8.134;2023-12-20T00:37:43;6.30;99.90
3300;DHT22;1662;49.310;8.134;2023-12-20T00:40:12;6.20;99.90
3300;DHT22;1662;49.310;8.134;2023-12-20T00:42:37;6.20;99.90
3300;DHT22;1662;49.310;8.134;2023-12-20T00:45:03;6.20;99.90
3300;DHT22;1662;49.310;8.134;2023-12-20T00:47:30;6.20;99.90
3300;DHT22;1662;49.310;8.134;2023-12-20T00:49:56;6.20;99.90
3300;DHT22;1662;49.310;8.134;2023-12-20T00:52:21;6.20;99.90
3300;DHT22;1662;49.310;8.134;2023-12-20T00:54:48;6.20;99.90
3300;DHT22;1662;49.310;8.134;2023-12-20T00:57:14;6.20;99.90
3300;DHT22;1662;49.310;8.134;2023-12-20T00:59:42;6.20;99.90
3300;DHT22;1662;49.310;8.134;2023-12-20T01:02:08;6.20;99.90
3300;DHT22;1662;49.310;8.134;2023-12-20T01:04:35;6.20;99.90
3300;DHT22;1662;49.310;8.134;2023-12-20T01:07:00;6.00;99.90
3300;DHT22;1662;49.310;8.134;2023-12-20T01:09:26;6.10;99.90
3300;DHT22;1662;49.310;8.134;2023-12-20T01:11:53;6.20;99.90
3300;DHT22;1662;49.310;8.134;2023-12-20T01:14:18;6.10;99.90
3300;DHT22;1662;49.310;8.134;2023-12-20T01:16:44;6.10;99.90
3300;DHT22;1662;49.310;8.134;2023-12-20T01:19:10;6.00;99.90
3300;DHT22;1662;49.310;8.134;2023-12-20T01:21:36;6.00;99.90
3300;DHT22;1662;49.310;8.134;2023-12-20T01:24:01;6.00;99.90
3300;DHT22;1662;49.310;8.134;2023-12-20T01:26:27;6.00;99.90
3300;DHT22;1662;49.310;8.134;2023-12-20T01:28:53;6.00;99.90
3300;DHT22;1662;49.310;8.134;2023-12-20T01:31:18;5.90;99.90
3300;DHT22;1662;49.310;8.134;2023-12-20T01:33:44;5.90;99.90
3300;DHT22;1662;49.310;8.134;2023-12-20T01:36:10;5.90;99.90
3300;DHT22;1662;49.310;8.134;2023-12-20T01:38:36;5.80;99.90
3300;DHT22;1662;49.310;8.134;2023-12-20T01:41:02;5.90;99.90
3300;DHT22;1662;49.310;8.134;2023-12-20T01:43:29;5.80;99.90
3300;DHT22;1662;49.310;8.134;2023-12-20T01:45:57;5.90;99.90
3300;DHT22;1662;49.310;8.134;2023-12-20T01:48:23;5.90;99.90
3300;DHT22;1662;49.310;8.134;2023-12-20T01:50:50;5.90;99.90
3300;DHT22;1662;49.310;8.134;2023-12-20T01:53:17;5.90;99.90
3300;DHT22;1662;49.310;8.134;2023-12-20T01:55:44;5.90;99.90
3300;DHT22;1662;49.310;8.134;2023-12-20T01:58:11;5.80;99.90
3300;DHT22;1662;49.310;8.134;2023-12-20T02:00:37;5.80;99.90
3300;DHT22;1662;49.310;8.134;2023-12-20T02:03:03;5.80;99.90
3300;DHT22;1662;49.310;8.134;2023-12-20T02:05:33;5.80;99.90
3300;DHT22;1662;49.310;8.134;2023-12-20T02:07:59;5.90;99.90
3300;DHT22;1662;49.310;8.134;2023-12-20T02:10:25;5.80;99.90
3300;DHT22;1662;49.310;8.134;2023-12-20T02:12:51;5.80;99.90
3300;DHT22;1662;49.310;8.134;2023-12-20T02:15:16;5.80;99.90
3300;DHT22;1662;49.310;8.134;2023-12-20T02:17:42;5.80;99.90
3300;DHT22;1662;49.310;8.134;2023-12-20T02:20:09;5.80;99.90
3300;DHT22;1662;49.310;8.134;2023-12-20T02:22:35;5.80;99.90
3300;DHT22;1662;49.310;8.134;2023-12-20T02:25:00;5.80;99.90
3300;DHT22;1662;49.310;8.134;2023-12-20T02:27:28;5.80;99.90
3300;DHT22;1662;49.310;8.134;2023-12-20T02:29:54;5.90;99.90
3300;DHT22;1662;49.310;8.134;2023-12-20T02:32:21;5.90;99.90
3300;DHT22;1662;49.310;8.134;2023-12-20T02:34:48;5.90;99.90
3300;DHT22;1662;49.310;8.134;2023-12-20T02:37:14;6.00;99.90
3300;DHT22;1662;49.310;8.134;2023-12-20T02:39:39;5.90;99.90
3300;DHT22;1662;49.310;8.134;2023-12-20T02:42:07;5.90;99.90
3300;DHT22;1662;49.310;8.134;2023-12-20T02:44:32;5.90;99.90
3300;DHT22;1662;49.310;8.134;2023-12-20T02:46:58;6.00;99.90
3300;DHT22;1662;49.310;8.134;2023-12-20T02:49:24;6.00;99.90
3300;DHT22;1662;49.310;8.134;2023-12-20T02:51:51;6.00;99.90
3300;DHT22;1662;49.310;8.134;2023-12-20T02:54:17;5.90;99.90
3300;DHT22;1662;49.310;8.134;2023-12-20T02:56:43;6.00;99.90
3300;DHT22;1662;49.310;8.134;2023-12-20T02:59:08;6.00;99.90
3300;DHT22;1662;49.310;8.134;2023-12-20T03:01:34;6.00;99.90
3300;DHT22;1662;49.310;8.134;2023-12-20T03:04:01;6.00;99.90
3300;DHT22;1662;49.310;8.134;2023-12-20T03:06:28;6.00;99.90
3300;DHT22;1662;49.310;8.134;2023-12-20T03:08:54;6.00;99.90
3300;DHT22;1662;49.310;8.134;2023-12-20T03:11:19;6.00;99.90
3300;DHT22;1662;49.310;8.134;2023-12-20T03:13:45;6.00;99.90
3300;DHT22;1662;49.310;8.134;2023-12-20T03:16:11;6.00;99.90
3300;DHT22;1662;49.310;8.134;2023-12-20T03:18:37;6.00;99.90
3300;DHT22;1662;49.310;8.134;2023-12-20T03:21:03;6.00;99.90
3300;DHT22;1662;49.310;8.134;2023-12-20T03:23:29;6.00;99.90
3300;DHT22;1662;49.310;8.134;2023-12-20T03:25:56;6.00;99.90
3300;DHT22;1662;49.310;8.134;2023-12-20T03:28:22;6.00;99.90
3300;DHT22;1662;49.310;8.134;2023-12-20T03:30:50;6.00;99.90
3300;DHT22;1662;49.310;8.134;2023-12-20T03:33:16;6.00;99.90
3300;DHT22;1662;49.310;8.134;2023-12-20T03:35:43;6.00;99.90
3300;DHT22;1662;49.310;8.134;2023-12-20T03:38:09;6.00;99.90
3300;DHT22;1662;49.310;8.134;2023-12-20T03:40:35;6.10;99.90
3300;DHT22;1662;49.310;8.134;2023-12-20T03:43:00;6.10;99.90
3300;DHT22;1662;49.310;8.134;2023-12-20T03:45:28;6.10;99.90
3300;DHT22;1662;49.310;8.134;2023-12-20T03:47:54;6.10;99.90
3300;DHT22;1662;49.310;8.134;2023-12-20T03:50:22;6.10;99.90
3300;DHT22;1662;49.310;8.134;2023-12-20T03:52:48;6.10;99.90
3300;DHT22;1662;49.310;8.134;2023-12-20T03:55:14;6.10;99.90
3300;DHT22;1662;49.310;8.134;2023-12-20T03:57:39;6.10;99.90
3300;DHT22;1662;49.310;8.134;2023-12-20T04:00:08;6.10;99.90
3300;DHT22;1662;49.310;8.134;2023-12-20T04:02:45;6.10;99.90
3300;DHT22;1662;49.310;8.134;2023-12-20T04:05:13;6.20;99.90
3300;DHT22;1662;49.310;8.134;2023-12-20T04:07:39;6.20;99.90
3300;DHT22;1662;49.310;8.134;2023-12-20T04:10:05;6.10;99.90
3300;DHT22;1662;49.310;8.134;2023-12-20T04:12:31;6.10;99.90
3300;DHT22;1662;49.310;8.134;2023-12-20T04:14:57;6.10;99.90
3300;DHT22;1662;49.310;8.134;2023-12-20T04:17:23;6.20;99.90
3300;DHT22;1662;49.310;8.134;2023-12-20T04:19:49;6.20;99.90
3300;DHT22;1662;49.310;8.134;2023-12-20T04:22:18;6.20;99.90
3300;DHT22;1662;49.310;8.134;2023-12-20T04:24:44;6.20;99.90
3300;DHT22;1662;49.310;8.134;2023-12-20T04:27:12;6.20;99.90
3300;DHT22;1662;49.310;8.134;2023-12-20T04:29:38;6.10;99.90
3300;DHT22;1662;49.310;8.134;2023-12-20T04:32:04;6.10;99.90
3300;DHT22;1662;49.310;8.134;2023-12-20T04:34:30;6.10;99.90
3300;DHT22;1662;49.310;8.134;2023-12-20T04:36:56;6.10;99.90
3300;DHT22;1662;49.310;8.134;2023-12-20T04:39:21;6.10;99.90
3300;DHT22;1662;49.310;8.134;2023-12-20T04:41:47;6.10;99.90
3300;DHT22;1662;49.310;8.134;2023-12-20T04:44:15;6.10;99.90
3300;DHT22;1662;49.310;8.134;2023-12-20T04:46:43;6.20;99.90
3300;DHT22;1662;49.310;8.134;2023-12-20T04:49:09;6.30;99.90
3300;DHT22;1662;49.310;8.134;2023-12-20T04:51:35;6.30;99.90
3300;DHT22;1662;49.310;8.134;2023-12-20T04:54:01;6.20;99.90
3300;DHT22;1662;49.310;8.134;2023-12-20T04:56:29;6.20;99.90
3300;DHT22;1662;49.310;8.134;2023-12-20T04:58:54;6.20;99.90
3300;DHT22;1662;49.310;8.134;2023-12-20T05:01:20;6.20;99.90
3300;DHT22;1662;49.310;8.134;2023-12-20T05:03:46;6.20;99.90
3300;DHT22;1662;49.310;8.134;2023-12-20T05:06:12;6.20;99.90
3300;DHT22;1662;49.310;8.134;2023-12-20T05:08:37;6.20;99.90
3300;DHT22;1662;49.310;8.134;2023-12-20T05:11:06;6.30;99.90
3300;DHT22;1662;49.310;8.134;2023-12-20T05:13:31;6.30;99.90
3300;DHT22;1662;49.310;8.134;2023-12-20T05:15:59;6.30;99.90
3300;DHT22;1662;49.310;8.134;2023-12-20T05:18:28;6.30;99.90
3300;DHT22;1662;49.310;8.134;2023-12-20T05:20:54;6.30;99.90
3300;DHT22;1662;49.310;8.134;2023-12-20T05:23:19;6.30;99.90
3300;DHT22;1662;49.310;8.134;2023-12-20T05:25:45;6.30;99.90
3300;DHT22;1662;49.310;8.134;2023-12-20T05:28:13;6.30;99.90
3300;DHT22;1662;49.310;8.134;2023-12-20T05:30:39;6.30;99.90
3300;DHT22;1662;49.310;8.134;2023-12-20T05:33:04;6.30;99.90
3300;DHT22;1662;49.310;8.134;2023-12-20T05:35:30;6.40;99.90
3300;DHT22;1662;49.310;8.134;2023-12-20T05:37:55;6.30;99.90
3300;DHT22;1662;49.310;8.134;2023-12-20T05:40:21;6.30;99.90
3300;DHT22;1662;49.310;8.134;2023-12-20T05:42:47;6.30;99.90
3300;DHT22;1662;49.310;8.134;2023-12-20T05:45:14;6.30;99.90
3300;DHT22;1662;49.310;8.134;2023-12-20T05:47:40;6.30;99.90
3300;DHT22;1662;49.310;8.134;2023-12-20T05:50:06;6.30;99.90
3300;DHT22;1662;49.310;8.134;2023-12-20T05:52:32;6.30;99.90
3300;DHT22;1662;49.310;8.134;2023-12-20T05:54:57;6.30;99.90
3300;DHT22;1662;49.310;8.134;2023-12-20T05:57:26;6.00;99.90
3300;DHT22;1662;49.310;8.134;2023-12-20T05:59:52;6.30;99.90
3300;DHT22;1662;49.310;8.134;2023-12-20T06:02:18;6.30;99.90
3300;DHT22;1662;49.310;8.134;2023-12-20T06:04:43;6.30;99.90
3300;DHT22;1662;49.310;8.134;2023-12-20T06:07:12;6.20;99.90
3300;DHT22;1662;49.310;8.134;2023-12-20T06:09:38;6.20;99.90
3300;DHT22;1662;49.310;8.134;2023-12-20T06:12:04;6.20;99.90
3300;DHT22;1662;49.310;8.134;2023-12-20T06:14:29;6.10;99.90
3300;DHT22;1662;49.310;8.134;2023-12-20T06:16:56;6.10;99.90
3300;DHT22;1662;49.310;8.134;2023-12-20T06:19:22;6.10;99.90
3300;DHT22;1662;49.310;8.134;2023-12-20T06:21:48;6.10;99.90
3300;DHT22;1662;49.310;8.134;2023-12-20T06:24:13;6.00;99.90
3300;DHT22;1662;49.310;8.134;2023-12-20T06:26:39;6.10;99.90
3300;DHT22;1662;49.310;8.134;2023-12-20T06:29:05;6.00;99.90
3300;DHT22;1662;49.310;8.134;2023-12-20T06:31:31;6.00;99.90
3300;DHT22;1662;49.310;8.134;2023-12-20T06:33:58;6.10;99.90
3300;DHT22;1662;49.310;8.134;2023-12-20T06:36:25;6.10;99.90
3300;DHT22;1662;49.310;8.134;2023-12-20T06:38:53;6.10;99.90
3300;DHT22;1662;49.310;8.134;2023-12-20T06:41:19;6.10;99.90
3300;DHT22;1662;49.310;8.134;2023-12-20T06:43:44;6.10;99.90
3300;DHT22;1662;49.310;8.134;2023-12-20T06:46:10;6.10;99.90
3300;DHT22;1662;49.310;8.134;2023-12-20T06:48:36;6.00;99.90
3300;DHT22;1662;49.310;8.134;2023-12-20T06:51:02;6.00;99.90
3300;DHT22;1662;49.310;8.134;2023-12-20T06:53:30;6.00;99.90
3300;DHT22;1662;49.310;8.134;2023-12-20T06:55:56;6.00;99.90
3300;DHT22;1662;49.310;8.134;2023-12-20T06:58:22;6.00;99.90
3300;DHT22;1662;49.310;8.134;2023-12-20T07:00:48;6.00;99.90
3300;DHT22;1662;49.310;8.134;2023-12-20T07:03:14;5.90;99.90
3300;DHT22;1662;49.310;8.134;2023-12-20T07:05:40;5.90;99.90
3300;DHT22;1662;49.310;8.134;2023-12-20T07:08:06;5.90;99.90
3300;DHT22;1662;49.310;8.134;2023-12-20T07:10:32;5.80;99.90
3300;DHT22;1662;49.310;8.134;2023-12-20T07:12:59;5.80;99.90
3300;DHT22;1662;49.310;8.134;2023-12-20T07:15:28;5.80;99.90
3300;DHT22;1662;49.310;8.134;2023-12-20T07:17:54;5.80;99.90
3300;DHT22;1662;49.310;8.134;2023-12-20T07:20:20;5.80;99.90
3300;DHT22;1662;49.310;8.134;2023-12-20T07:22:46;5.70;99.90
3300;DHT22;1662;49.310;8.134;2023-12-20T07:25:16;5.80;99.90
3300;DHT22;1662;49.310;8.134;2023-12-20T07:27:43;5.80;99.90
3300;DHT22;1662;49.310;8.134;2023-12-20T07:30:09;5.70;99.90
3300;DHT22;1662;49.310;8.134;2023-12-20T07:32:35;5.80;99.90
3300;DHT22;1662;49.310;8.134;2023-12-20T07:35:01;5.70;99.90
3300;DHT22;1662;49.310;8.134;2023-12-20T07:37:28;5.70;99.90
3300;DHT22;1662;49.310;8.134;2023-12-20T07:39:53;5.70;99.90
3300;DHT22;1662;49.310;8.134;2023-12-20T07:42:19;5.70;99.90
3300;DHT22;1662;49.310;8.134;2023-12-20T07:44:45;5.70;99.90
3300;DHT22;1662;49.310;8.134;2023-12-20T07:47:10;5.60;99.90
3300;DHT22;1662;49.310;8.134;2023-12-20T07:49:40;5.60;99.90
3300;DHT22;1662;49.310;8.134;2023-12-20T07:52:08;5.60;99.90
3300;DHT22;1662;49.310;8.134;2023-12-20T07:54:34;5.60;99.90
3300;DHT22;1662;49.310;8.134;2023-12-20T07:57:03;5.50;99.90
3300;DHT22;1662;49.310;8.134;2023-12-20T07:59:29;5.50;99.90
3300;DHT22;1662;49.310;8.134;2023-12-20T08:01:55;5.50;99.90
3300;DHT22;1662;49.310;8.134;2023-12-20T08:04:21;5.50;99.90
3300;DHT22;1662;49.310;8.134;2023-12-20T08:06:46;5.50;99.90
3300;DHT22;1662;49.310;8.134;2023-12-20T08:09:12;5.60;99.90
3300;DHT22;1662;49.310;8.134;2023-12-20T08:11:37;5.60;99.90
3300;DHT22;1662;49.310;8.134;2023-12-20T08:14:03;5.60;99.90
3300;DHT22;1662;49.310;8.134;2023-12-20T08:16:29;5.60;99.90
3300;DHT22;1662;49.310;8.134;2023-12-20T08:18:57;5.60;99.90
3300;DHT22;1662;49.310;8.134;2023-12-20T08:21:24;5.70;99.90
3300;DHT22;1662;49.310;8.134;2023-12-20T08:23:50;5.80;99.90
3300;DHT22;1662;49.310;8.134;2023-12-20T08:26:19;5.80;99.90
3300;DHT22;1662;49.310;8.134;2023-12-20T08:28:48;5.80;99.90
3300;DHT22;1662;49.310;8.134;2023-12-20T08:31:14;5.80;99.90
3300;DHT22;1662;49.310;8.134;2023-12-20T08:33:43;5.70;99.90
3300;DHT22;1662;49.310;8.134;2023-12-20T08:36:11;5.70;99.90
3300;DHT22;1662;49.310;8.134;2023-12-20T08:38:37;5.70;99.90
3300;DHT22;1662;49.310;8.134;2023-12-20T08:41:02;5.70;99.90
3300;DHT22;1662;49.310;8.134;2023-12-20T08:43:39;5.70;99.90
3300;DHT22;1662;49.310;8.134;2023-12-20T08:46:06;5.70;99.90
3300;DHT22;1662;49.310;8.134;2023-12-20T08:48:31;5.70;99.90
3300;DHT22;1662;49.310;8.134;2023-12-20T08:50:57;5.80;99.90
3300;DHT22;1662;49.310;8.134;2023-12-20T08:53:22;5.80;99.90
3300;DHT22;1662;49.310;8.134;2023-12-20T08:55:48;5.90;99.90
3300;DHT22;1662;49.310;8.134;2023-12-20T08:58:14;5.90;99.90
3300;DHT22;1662;49.310;8.134;2023-12-20T09:00:40;6.00;99.90
3300;DHT22;1662;49.310;8.134;2023-12-20T09:03:09;6.10;99.90
3300;DHT22;1662;49.310;8.134;2023-12-20T09:05:35;6.10;99.90
3300;DHT22;1662;49.310;8.134;2023-12-20T09:08:00;6.10;99.90
3300;DHT22;1662;49.310;8.134;2023-12-20T09:10:26;6.20;99.90
3300;DHT22;1662;49.310;8.134;2023-12-20T09:12:52;6.20;99.90
3300;DHT22;1662;49.310;8.134;2023-12-20T09:15:26;6.30;99.90
3300;DHT22;1662;49.310;8.134;2023-12-20T09:17:52;6.30;99.90
3300;DHT22;1662;49.310;8.134;2023-12-20T09:20:19;6.40;99.90
3300;DHT22;1662;49.310;8.134;2023-12-20T09:22:44;6.40;99.90
3300;DHT22;1662;49.310;8.134;2023-12-20T09:25:10;6.40;99.90
3300;DHT22;1662;49.310;8.134;2023-12-20T09:27:38;6.40;99.90
3300;DHT22;1662;49.310;8.134;2023-12-20T09:30:04;6.40;99.90
3300;DHT22;1662;49.310;8.134;2023-12-20T09:32:33;6.40;99.90
3300;DHT22;1662;49.310;8.134;2023-12-20T09:34:58;6.40;99.90
3300;DHT22;1662;49.310;8.134;2023-12-20T09:37:27;6.30;99.90
3300;DHT22;1662;49.310;8.134;2023-12-20T09:39:53;6.30;99.90
3300;DHT22;1662;49.310;8.134;2023-12-20T09:42:43;6.30;99.90
3300;DHT22;1662;49.310;8.134;2023-12-20T09:45:15;6.20;99.90
3300;DHT22;1662;49.310;8.134;2023-12-20T09:47:43;6.30;99.90
3300;DHT22;1662;49.310;8.134;2023-12-20T09:50:09;6.20;99.90
3300;DHT22;1662;49.310;8.134;2023-12-20T09:52:36;6.30;99.90
3300;DHT22;1662;49.310;8.134;2023-12-20T09:55:04;6.40;99.90
3300;DHT22;1662;49.310;8.134;2023-12-20T09:57:32;6.50;99.90
3300;DHT22;1662;49.310;8.134;2023-12-20T09:59:58;6.50;99.90
3300;DHT22;1662;49.310;8.134;2023-12-20T10:02:25;6.60;99.90
3300;DHT22;1662;49.310;8.134;2023-12-20T10:04:55;6.70;99.90
3300;DHT22;1662;49.310;8.134;2023-12-20T10:07:21;6.80;99.90
3300;DHT22;1662;49.310;8.134;2023-12-20T10:09:47;6.90;99.90
3300;DHT22;1662;49.310;8.134;2023-12-20T10:12:13;7.00;99.90
3300;DHT22;1662;49.310;8.134;2023-12-20T10:14:39;7.10;99.90
3300;DHT22;1662;49.310;8.134;2023-12-20T10:17:06;7.20;99.90
3300;DHT22;1662;49.310;8.134;2023-12-20T10:19:32;7.40;99.90
3300;DHT22;1662;49.310;8.134;2023-12-20T10:22:03;7.40;99.90
3300;DHT22;1662;49.310;8.134;2023-12-20T10:24:32;7.50;99.90
3300;DHT22;1662;49.310;8.134;2023-12-20T10:27:04;7.60;99.90
3300;DHT22;1662;49.310;8.134;2023-12-20T10:29:39;7.60;99.90
3300;DHT22;1662;49.310;8.134;2023-12-20T10:32:25;7.50;99.90
3300;DHT22;1662;49.310;8.134;2023-12-20T10:34:52;7.40;99.90
3300;DHT22;1662;49.310;8.134;2023-12-20T10:37:18;7.30;99.90
3300;DHT22;1662;49.310;8.134;2023-12-20T10:39:43;7.20;99.90
3300;DHT22;1662;49.310;8.134;2023-12-20T10:42:13;7.20;99.90
3300;DHT22;1662;49.310;8.134;2023-12-20T10:44:39;7.10;99.90
3300;DHT22;1662;49.310;8.134;2023-12-20T10:47:09;7.00;99.90
3300;DHT22;1662;49.310;8.134;2023-12-20T10:49:39;7.00;99.90
3300;DHT22;1662;49.310;8.134;2023-12-20T10:52:06;6.90;99.90
3300;DHT22;1662;49.310;8.134;2023-12-20T10:54:32;6.90;99.90
3300;DHT22;1662;49.310;8.134;2023-12-20T10:56:58;6.80;99.90
3300;DHT22;1662;49.310;8.134;2023-12-20T10:59:28;6.90;99.90
3300;DHT22;1662;49.310;8.134;2023-12-20T11:01:56;6.90;99.90
3300;DHT22;1662;49.310;8.134;2023-12-20T11:04:44;6.90;99.90
3300;DHT22;1662;49.310;8.134;2023-12-20T11:07:37;6.80;99.90
3300;DHT22;1662;49.310;8.134;2023-12-20T11:15:35;6.80;99.90
3300;DHT22;1662;49.310;8.134;2023-12-20T11:18:01;6.80;99.90
3300;DHT22;1662;49.310;8.134;2023-12-20T11:20:38;6.80;99.90
3300;DHT22;1662;49.310;8.134;2023-12-20T11:23:05;6.80;99.90
3300;DHT22;1662;49.310;8.134;2023-12-20T11:25:52;6.90;99.90
3300;DHT22;1662;49.310;8.134;2023-12-20T11:28:22;6.80;99.90
3300;DHT22;1662;49.310;8.134;2023-12-20T11:30:54;6.80;99.90
3300;DHT22;1662;49.310;8.134;2023-12-20T11:33:29;6.80;99.90
3300;DHT22;1662;49.310;8.134;2023-12-20T11:35:56;6.80;99.90
3300;DHT22;1662;49.310;8.134;2023-12-20T11:38:25;6.90;99.90
3300;DHT22;1662;49.310;8.134;2023-12-20T11:40:51;6.80;99.90
3300;DHT22;1662;49.310;8.134;2023-12-20T11:43:38;6.90;99.90
3300;DHT22;1662;49.310;8.134;2023-12-20T11:48:31;6.80;99.90
3300;DHT22;1662;49.310;8.134;2023-12-20T11:50:57;6.90;99.90
3300;DHT22;1662;49.310;8.134;2023-12-20T11:53:23;6.80;99.90
3300;DHT22;1662;49.310;8.134;2023-12-20T11:55:51;6.80;99.90
3300;DHT22;1662;49.310;8.134;2023-12-20T11:58:17;6.80;99.90
3300;DHT22;1662;49.310;8.134;2023-12-20T12:00:43;6.80;99.90
3300;DHT22;1662;49.310;8.134;2023-12-20T12:03:09;6.80;99.90
3300;DHT22;1662;49.310;8.134;2023-12-20T12:05:35;6.80;99.90
3300;DHT22;1662;49.310;8.134;2023-12-20T12:08:02;6.80;99.90
3300;DHT22;1662;49.310;8.134;2023-12-20T12:10:29;6.80;99.90
3300;DHT22;1662;49.310;8.134;2023-12-20T12:12:54;6.80;99.90
3300;DHT22;1662;49.310;8.134;2023-12-20T12:15:21;6.80;99.90
3300;DHT22;1662;49.310;8.134;2023-12-20T12:17:54;6.80;99.90
3300;DHT22;1662;49.310;8.134;2023-12-20T12:20:20;6.90;99.90
3300;DHT22;1662;49.310;8.134;2023-12-20T12:22:48;6.80;99.90
3300;DHT22;1662;49.310;8.134;2023-12-20T12:25:22;6.80;99.90
3300;DHT22;1662;49.310;8.134;2023-12-20T12:27:48;6.80;99.90
3300;DHT22;1662;49.310;8.134;2023-12-20T12:30:16;6.80;99.90
3300;DHT22;1662;49.310;8.134;2023-12-20T12:32:44;6.80;99.90
3300;DHT22;1662;49.310;8.134;2023-12-20T12:35:10;6.80;99.90
3300;DHT22;1662;49.310;8.134;2023-12-20T12:37:38;6.80;99.90
3300;DHT22;1662;49.310;8.134;2023-12-20T12:40:13;6.80;99.90
3300;DHT22;1662;49.310;8.134;2023-12-20T12:42:42;6.70;99.90
3300;DHT22;1662;49.310;8.134;2023-12-20T12:45:09;6.70;99.90
3300;DHT22;1662;49.310;8.134;2023-12-20T12:47:35;6.70;99.90
3300;DHT22;1662;49.310;8.134;2023-12-20T12:50:01;6.70;99.90
3300;DHT22;1662;49.310;8.134;2023-12-20T12:52:26;6.70;99.90
3300;DHT22;1662;49.310;8.134;2023-12-20T12:54:53;6.70;99.90
3300;DHT22;1662;49.310;8.134;2023-12-20T12:57:19;6.70;99.90
3300;DHT22;1662;49.310;8.134;2023-12-20T12:59:45;6.70;99.90
3300;DHT22;1662;49.310;8.134;2023-12-20T13:02:12;6.70;99.90
3300;DHT22;1662;49.310;8.134;2023-12-20T13:04:41;6.70;99.90
3300;DHT22;1662;49.310;8.134;2023-12-20T13:07:07;6.70;99.90
3300;DHT22;1662;49.310;8.134;2023-12-20T13:09:36;6.70;99.90
3300;DHT22;1662;49.310;8.134;2023-12-20T13:12:01;6.80;99.90
3300;DHT22;1662;49.310;8.134;2023-12-20T13:14:29;6.80;99.90
3300;DHT22;1662;49.310;8.134;2023-12-20T13:16:55;6.80;99.90
3300;DHT22;1662;49.310;8.134;2023-12-20T13:19:21;6.80;99.90
3300;DHT22;1662;49.310;8.134;2023-12-20T13:21:46;6.70;99.90
3300;DHT22;1662;49.310;8.134;2023-12-20T13:24:12;6.80;99.90
3300;DHT22;1662;49.310;8.134;2023-12-20T13:26:38;6.80;99.90
3300;DHT22;1662;49.310;8.134;2023-12-20T13:29:03;6.80;99.90
3300;DHT22;1662;49.310;8.134;2023-12-20T13:31:29;6.90;99.90
3300;DHT22;1662;49.310;8.134;2023-12-20T13:33:54;6.80;99.90
3300;DHT22;1662;49.310;8.134;2023-12-20T13:36:20;6.80;99.90
3300;DHT22;1662;49.310;8.134;2023-12-20T13:38:46;6.80;99.90
3300;DHT22;1662;49.310;8.134;2023-12-20T13:41:11;7.10;99.90
3300;DHT22;1662;49.310;8.134;2023-12-20T13:43:37;7.40;99.90
3300;DHT22;1662;49.310;8.134;2023-12-20T13:46:03;7.70;99.90
3300;DHT22;1662;49.310;8.134;2023-12-20T13:48:29;8.00;99.90
3300;DHT22;1662;49.310;8.134;2023-12-20T13:50:54;8.30;99.90
3300;DHT22;1662;49.310;8.134;2023-12-20T13:53:20;8.40;99.90
3300;DHT22;1662;49.310;8.134;2023-12-20T13:55:45;8.40;99.90
3300;DHT22;1662;49.310;8.134;2023-12-20T13:58:11;8.50;99.90
3300;DHT22;1662;49.310;8.134;2023-12-20T14:00:37;8.40;99.90
3300;DHT22;1662;49.310;8.134;2023-12-20T14:03:06;8.50;99.90
3300;DHT22;1662;49.310;8.134;2023-12-20T14:05:31;8.60;99.90
3300;DHT22;1662;49.310;8.134;2023-12-20T14:07:57;8.60;99.90
3300;DHT22;1662;49.310;8.134;2023-12-20T14:10:23;8.50;99.90
3300;DHT22;1662;49.310;8.134;2023-12-20T14:12:52;8.30;99.90
3300;DHT22;1662;49.310;8.134;2023-12-20T14:15:17;8.00;99.90
3300;DHT22;1662;49.310;8.134;2023-12-20T14:17:45;7.90;99.90
3300;DHT22;1662;49.310;8.134;2023-12-20T14:20:11;7.70;99.90
3300;DHT22;1662;49.310;8.134;2023-12-20T14:22:38;7.70;99.90
3300;DHT22;1662;49.310;8.134;2023-12-20T14:25:04;7.60;99.90
3300;DHT22;1662;49.310;8.134;2023-12-20T14:27:31;7.50;99.90
3300;DHT22;1662;49.310;8.134;2023-12-20T14:29:57;7.50;99.90
3300;DHT22;1662;49.310;8.134;2023-12-20T14:32:26;7.50;99.90
3300;DHT22;1662;49.310;8.134;2023-12-20T14:34:53;7.40;99.90
3300;DHT22;1662;49.310;8.134;2023-12-20T14:37:20;7.40;99.90
3300;DHT22;1662;49.310;8.134;2023-12-20T14:39:45;7.40;99.90
3300;DHT22;1662;49.310;8.134;2023-12-20T14:42:11;7.30;99.90
3300;DHT22;1662;49.310;8.134;2023-12-20T14:44:40;7.30;99.90
3300;DHT22;1662;49.310;8.134;2023-12-20T14:47:06;7.20;99.90
3300;DHT22;1662;49.310;8.134;2023-12-20T14:49:32;7.30;99.90
3300;DHT22;1662;49.310;8.134;2023-12-20T14:51:58;7.30;99.90
3300;DHT22;1662;49.310;8.134;2023-12-20T14:54:24;7.20;99.90
3300;DHT22;1662;49.310;8.134;2023-12-20T14:56:49;7.20;99.90
3300;DHT22;1662;49.310;8.134;2023-12-20T14:59:15;7.10;99.90
3300;DHT22;1662;49.310;8.134;2023-12-20T15:01:40;7.10;99.90
3300;DHT22;1662;49.310;8.134;2023-12-20T15:04:07;7.10;99.90
3300;DHT22;1662;49.310;8.134;2023-12-20T15:06:33;7.00;99.90
3300;DHT22;1662;49.310;8.134;2023-12-20T15:08:59;7.00;99.90
3300;DHT22;1662;49.310;8.134;2023-12-20T15:11:26;6.90;99.90
3300;DHT22;1662;49.310;8.134;2023-12-20T15:13:52;6.90;99.90
3300;DHT22;1662;49.310;8.134;2023-12-20T15:16:22;6.80;99.90
3300;DHT22;1662;49.310;8.134;2023-12-20T15:18:48;6.80;99.90
3300;DHT22;1662;49.310;8.134;2023-12-20T15:21:14;6.80;99.90
3300;DHT22;1662;49.310;8.134;2023-12-20T15:23:40;6.80;99.90
3300;DHT22;1662;49.310;8.134;2023-12-20T15:26:18;6.80;99.90
3300;DHT22;1662;49.310;8.134;2023-12-20T15:28:43;6.70;99.90
3300;DHT22;1662;49.310;8.134;2023-12-20T15:31:09;6.70;99.90
3300;DHT22;1662;49.310;8.134;2023-12-20T15:33:34;6.70;99.90
3300;DHT22;1662;49.310;8.134;2023-12-20T15:36:00;6.80;99.90
3300;DHT22;1662;49.310;8.134;2023-12-20T15:38:26;6.80;99.90
3300;DHT22;1662;49.310;8.134;2023-12-20T15:40:51;6.70;99.90
3300;DHT22;1662;49.310;8.134;2023-12-20T15:43:17;6.80;99.90
3300;DHT22;1662;49.310;8.134;2023-12-20T15:45:42;6.80;99.90
3300;DHT22;1662;49.310;8.134;2023-12-20T15:48:08;6.70;99.90
3300;DHT22;1662;49.310;8.134;2023-12-20T15:50:36;6.80;99.90
3300;DHT22;1662;49.310;8.134;2023-12-20T15:53:02;6.80;99.90
3300;DHT22;1662;49.310;8.134;2023-12-20T15:55:28;6.80;99.90
3300;DHT22;1662;49.310;8.134;2023-12-20T15:57:56;6.80;99.90
3300;DHT22;1662;49.310;8.134;2023-12-20T16:00:22;6.80;99.90
3300;DHT22;1662;49.310;8.134;2023-12-20T16:02:47;6.80;99.90
3300;DHT22;1662;49.310;8.134;2023-12-20T16:05:13;6.70;99.90
3300;DHT22;1662;49.310;8.134;2023-12-20T16:07:38;6.80;99.90
3300;DHT22;1662;49.310;8.134;2023-12-20T16:10:04;6.80;99.90
3300;DHT22;1662;49.310;8.134;2023-12-20T16:12:30;6.70;99.90
3300;DHT22;1662;49.310;8.134;2023-12-20T16:14:56;6.70;99.90
3300;DHT22;1662;49.310;8.134;2023-12-20T16:17:21;6.70;99.90
3300;DHT22;1662;49.310;8.134;2023-12-20T16:19:47;6.80;99.90
3300;DHT22;1662;49.310;8.134;2023-12-20T16:22:12;6.80;99.90